sensor_id;sensor_type;location;lat;lon;timestamp;pressure;altitude;pressure_sealevel;temperature;humidity
64933;BME280;51446;53.850;10.662;2023-05-10T00:01:13;100874.25;;;12.69;68.46
64933;BME280;51446;53.850;10.662;2023-05-10T00:03:38;100875.13;;;12.70;70.05
64933;BME280;51446;53.850;10.662;2023-05-10T00:06:03;100869.00;;;12.72;69.09
64933;BME280;51446;53.850;10.662;2023-05-10T00:08:28;100867.19;;;12.63;69.87
64933;BME280;51446;53.850;10.662;2023-05-10T00:10:54;100870.56;;;12.52;70.54
64933;BME280;51446;53.850;10.662;2023-05-10T00:13:19;100870.69;;;12.64;69.96
64933;BME280;51446;53.850;10.662;2023-05-10T00:15:44;100866.31;;;12.67;69.33
64933;BME280;51446;53.850;10.662;2023-05-10T00:18:10;100854.84;;;12.56;70.32
64933;BME280;51446;53.850;10.662;2023-05-10T00:20:35;100852.25;;;12.64;70.06
64933;BME280;51446;53.850;10.662;2023-05-10T00:23:00;100851.34;;;12.60;69.88
64933;BME280;51446;53.850;10.662;2023-05-10T00:25:25;100847.78;;;12.51;71.50
64933;BME280;51446;53.850;10.662;2023-05-10T00:27:51;100843.34;;;12.48;71.55
64933;BME280;51446;53.850;10.662;2023-05-10T00:30:17;100840.78;;;12.54;71.05
64933;BME280;51446;53.850;10.662;2023-05-10T00:32:42;100841.72;;;12.59;70.03
64933;BME280;51446;53.850;10.662;2023-05-10T00:35:08;100836.28;;;12.42;73.39
64933;BME280;51446;53.850;10.662;2023-05-10T00:37:33;100838.94;;;12.47;71.74
64933;BME280;51446;53.850;10.662;2023-05-10T00:39:59;100826.63;;;12.41;72.23
64933;BME280;51446;53.850;10.662;2023-05-10T00:42:24;100832.84;;;12.51;71.44
64933;BME280;51446;53.850;10.662;2023-05-10T00:44:49;100836.28;;;12.41;72.88
64933;BME280;51446;53.850;10.662;2023-05-10T00:47:15;100837.09;;;12.35;74.23
64933;BME280;51446;53.850;10.662;2023-05-10T00:49:41;100832.72;;;12.37;72.69
64933;BME280;51446;53.850;10.662;2023-05-10T00:52:08;100821.31;;;12.35;73.32
64933;BME280;51446;53.850;10.662;2023-05-10T00:54:33;100816.84;;;12.23;74.37
64933;BME280;51446;53.850;10.662;2023-05-10T00:56:58;100816.88;;;12.28;74.13
64933;BME280;51446;53.850;10.662;2023-05-10T00:59:24;100816.78;;;12.19;74.64
64933;BME280;51446;53.850;10.662;2023-05-10T01:01:49;100808.97;;;12.26;75.38
64933;BME280;51446;53.850;10.662;2023-05-10T01:04:16;100812.47;;;12.25;75.24
64933;BME280;51446;53.850;10.662;2023-05-10T01:06:41;100817.50;;;12.05;77.97
64933;BME280;51446;53.850;10.662;2023-05-10T01:09:07;100812.25;;;12.05;77.66
64933;BME280;51446;53.850;10.662;2023-05-10T01:11:36;100809.63;;;12.05;79.20
64933;BME280;51446;53.850;10.662;2023-05-10T01:14:03;100799.06;;;12.01;79.42
64933;BME280;51446;53.850;10.662;2023-05-10T01:16:31;100797.28;;;11.96;79.39
64933;BME280;51446;53.850;10.662;2023-05-10T01:18:57;100801.69;;;11.97;78.45
64933;BME280;51446;53.850;10.662;2023-05-10T01:21:38;100792.97;;;12.02;79.79
64933;BME280;51446;53.850;10.662;2023-05-10T01:24:38;100797.25;;;11.93;80.75
64933;BME280;51446;53.850;10.662;2023-05-10T01:27:17;100793.72;;;11.93;81.01
64933;BME280;51446;53.850;10.662;2023-05-10T01:33:01;100788.59;;;12.04;80.03
64933;BME280;51446;53.850;10.662;2023-05-10T01:35:32;100796.31;;;11.90;80.44
64933;BME280;51446;53.850;10.662;2023-05-10T01:38:22;100799.88;;;11.93;80.75
64933;BME280;51446;53.850;10.662;2023-05-10T01:41:05;100791.19;;;11.99;80.05
64933;BME280;51446;53.850;10.662;2023-05-10T01:43:41;100790.97;;;11.82;82.23
64933;BME280;51446;53.850;10.662;2023-05-10T01:46:11;100791.94;;;11.92;81.62
64933;BME280;51446;53.850;10.662;2023-05-10T01:48:58;100793.53;;;11.77;83.28
64933;BME280;51446;53.850;10.662;2023-05-10T01:51:29;100788.34;;;11.85;82.23
64933;BME280;51446;53.850;10.662;2023-05-10T01:54:01;100793.63;;;11.87;82.12
64933;BME280;51446;53.850;10.662;2023-05-10T01:56:30;100792.75;;;11.86;82.80
64933;BME280;51446;53.850;10.662;2023-05-10T01:58:56;100785.72;;;11.85;82.74
64933;BME280;51446;53.850;10.662;2023-05-10T02:01:22;100778.59;;;11.72;84.06
64933;BME280;51446;53.850;10.662;2023-05-10T02:03:50;100778.53;;;11.64;85.85
64933;BME280;51446;53.850;10.662;2023-05-10T02:06:18;100786.28;;;11.56;85.54
64933;BME280;51446;53.850;10.662;2023-05-10T02:08:45;100797.00;;;11.75;83.73
64933;BME280;51446;53.850;10.662;2023-05-10T02:11:13;100781.25;;;11.76;83.92
64933;BME280;51446;53.850;10.662;2023-05-10T02:13:38;100786.44;;;11.69;84.85
64933;BME280;51446;53.850;10.662;2023-05-10T02:16:05;100776.81;;;11.69;84.92
64933;BME280;51446;53.850;10.662;2023-05-10T02:18:31;100778.56;;;11.69;84.65
64933;BME280;51446;53.850;10.662;2023-05-10T02:20:57;100780.38;;;11.74;84.26
64933;BME280;51446;53.850;10.662;2023-05-10T02:23:24;100782.81;;;11.57;86.83
64933;BME280;51446;53.850;10.662;2023-05-10T02:25:51;100787.44;;;11.78;84.33
64933;BME280;51446;53.850;10.662;2023-05-10T02:28:19;100782.72;;;11.48;87.29
64933;BME280;51446;53.850;10.662;2023-05-10T02:30:45;100788.88;;;11.53;87.13
64933;BME280;51446;53.850;10.662;2023-05-10T02:33:12;100787.88;;;11.42;89.15
64933;BME280;51446;53.850;10.662;2023-05-10T02:35:39;100779.22;;;11.51;87.73
64933;BME280;51446;53.850;10.662;2023-05-10T02:38:06;100780.91;;;11.44;88.07
64933;BME280;51446;53.850;10.662;2023-05-10T02:40:33;100784.34;;;11.40;89.75
64933;BME280;51446;53.850;10.662;2023-05-10T02:42:59;100782.59;;;11.40;88.94
64933;BME280;51446;53.850;10.662;2023-05-10T02:45:28;100787.00;;;11.41;89.80
64933;BME280;51446;53.850;10.662;2023-05-10T02:47:55;100785.16;;;11.34;90.26
64933;BME280;51446;53.850;10.662;2023-05-10T02:50:22;100787.53;;;11.16;92.99
64933;BME280;51446;53.850;10.662;2023-05-10T02:52:51;100783.28;;;11.24;91.67
64933;BME280;51446;53.850;10.662;2023-05-10T02:55:19;100788.50;;;11.22;92.19
64933;BME280;51446;53.850;10.662;2023-05-10T02:57:51;100786.00;;;11.33;91.34
64933;BME280;51446;53.850;10.662;2023-05-10T03:00:17;100783.31;;;11.28;91.73
64933;BME280;51446;53.850;10.662;2023-05-10T03:02:42;100783.13;;;11.15;93.00
64933;BME280;51446;53.850;10.662;2023-05-10T03:05:07;100782.22;;;11.11;93.54
64933;BME280;51446;53.850;10.662;2023-05-10T03:07:33;100781.41;;;11.14;93.91
64933;BME280;51446;53.850;10.662;2023-05-10T03:09:59;100787.28;;;10.99;94.44
64933;BME280;51446;53.850;10.662;2023-05-10T03:15:27;100790.88;;;11.05;95.36
64933;BME280;51446;53.850;10.662;2023-05-10T03:18:29;100788.25;;;11.05;95.05
64933;BME280;51446;53.850;10.662;2023-05-10T03:21:02;100791.91;;;11.15;93.84
64933;BME280;51446;53.850;10.662;2023-05-10T03:23:34;100791.78;;;11.07;94.85
64933;BME280;51446;53.850;10.662;2023-05-10T03:26:01;100788.22;;;11.01;96.33
64933;BME280;51446;53.850;10.662;2023-05-10T03:28:26;100774.06;;;10.91;97.03
64933;BME280;51446;53.850;10.662;2023-05-10T03:30:53;100786.34;;;10.92;96.98
64933;BME280;51446;53.850;10.662;2023-05-10T03:33:19;100780.09;;;10.85;99.10
64933;BME280;51446;53.850;10.662;2023-05-10T03:35:45;100787.03;;;10.82;100.00
64933;BME280;51446;53.850;10.662;2023-05-10T03:38:11;100787.03;;;10.82;100.00
64933;BME280;51446;53.850;10.662;2023-05-10T03:40:37;100780.84;;;10.75;100.00
64933;BME280;51446;53.850;10.662;2023-05-10T03:43:02;100785.53;;;10.98;97.94
64933;BME280;51446;53.850;10.662;2023-05-10T03:45:28;100786.97;;;10.77;100.00
64933;BME280;51446;53.850;10.662;2023-05-10T03:47:53;100785.34;;;10.85;100.00
64933;BME280;51446;53.850;10.662;2023-05-10T03:50:19;100775.72;;;10.86;100.00
64933;BME280;51446;53.850;10.662;2023-05-10T03:52:44;100788.88;;;10.89;100.00
64933;BME280;51446;53.850;10.662;2023-05-10T03:55:10;100779.59;;;11.09;98.76
64933;BME280;51446;53.850;10.662;2023-05-10T03:57:35;100776.00;;;11.04;98.73
64933;BME280;51446;53.850;10.662;2023-05-10T04:00:01;100769.91;;;11.05;99.42
64933;BME280;51446;53.850;10.662;2023-05-10T04:02:26;100770.75;;;11.04;100.00
64933;BME280;51446;53.850;10.662;2023-05-10T04:04:51;100767.19;;;10.99;100.00
64933;BME280;51446;53.850;10.662;2023-05-10T04:07:17;100770.03;;;11.16;100.00
64933;BME280;51446;53.850;10.662;2023-05-10T04:09:43;100770.22;;;11.32;97.17
64933;BME280;51446;53.850;10.662;2023-05-10T04:12:08;100770.97;;;11.21;99.40
64933;BME280;51446;53.850;10.662;2023-05-10T04:14:34;100766.59;;;11.20;99.46
64933;BME280;51446;53.850;10.662;2023-05-10T04:16:59;100767.63;;;11.33;100.00
64933;BME280;51446;53.850;10.662;2023-05-10T04:19:28;100764.09;;;11.28;99.48
64933;BME280;51446;53.850;10.662;2023-05-10T04:21:54;100746.75;;;11.42;97.35
64933;BME280;51446;53.850;10.662;2023-05-10T04:24:19;100757.44;;;11.59;95.81
64933;BME280;51446;53.850;10.662;2023-05-10T04:26:44;100756.56;;;11.59;98.64
64933;BME280;51446;53.850;10.662;2023-05-10T04:29:10;100759.16;;;11.57;98.34
64933;BME280;51446;53.850;10.662;2023-05-10T04:31:35;100761.16;;;11.77;94.20
64933;BME280;51446;53.850;10.662;2023-05-10T04:34:01;100752.31;;;11.72;95.01
64933;BME280;51446;53.850;10.662;2023-05-10T04:36:26;100774.16;;;11.68;97.37
64933;BME280;51446;53.850;10.662;2023-05-10T04:38:52;100768.13;;;11.78;94.92
64933;BME280;51446;53.850;10.662;2023-05-10T04:41:17;100762.03;;;11.79;94.32
64933;BME280;51446;53.850;10.662;2023-05-10T04:43:43;100755.03;;;11.79;95.21
64933;BME280;51446;53.850;10.662;2023-05-10T04:46:08;100760.50;;;11.98;93.78
64933;BME280;51446;53.850;10.662;2023-05-10T04:48:33;100769.22;;;11.95;96.01
64933;BME280;51446;53.850;10.662;2023-05-10T04:50:59;100772.78;;;12.01;95.89
64933;BME280;51446;53.850;10.662;2023-05-10T04:53:24;100765.88;;;12.10;93.22
64933;BME280;51446;53.850;10.662;2023-05-10T04:55:50;100767.78;;;12.27;90.72
64933;BME280;51446;53.850;10.662;2023-05-10T04:58:15;100771.19;;;12.15;92.85
64933;BME280;51446;53.850;10.662;2023-05-10T05:00:40;100777.34;;;12.19;93.50
64933;BME280;51446;53.850;10.662;2023-05-10T05:03:06;100772.19;;;12.31;92.10
64933;BME280;51446;53.850;10.662;2023-05-10T05:05:31;100770.41;;;12.28;89.66
64933;BME280;51446;53.850;10.662;2023-05-10T05:07:57;100777.44;;;12.29;91.27
64933;BME280;51446;53.850;10.662;2023-05-10T05:10:22;100773.06;;;12.30;90.28
64933;BME280;51446;53.850;10.662;2023-05-10T05:12:47;100772.94;;;12.16;93.60
64933;BME280;51446;53.850;10.662;2023-05-10T05:15:12;100772.97;;;12.21;92.57
64933;BME280;51446;53.850;10.662;2023-05-10T05:17:38;100776.56;;;12.29;92.60
64933;BME280;51446;53.850;10.662;2023-05-10T05:20:03;100767.66;;;12.11;92.58
64933;BME280;51446;53.850;10.662;2023-05-10T05:22:29;100771.19;;;12.18;91.53
64933;BME280;51446;53.850;10.662;2023-05-10T05:24:55;100779.19;;;12.27;90.54
64933;BME280;51446;53.850;10.662;2023-05-10T05:27:20;100776.59;;;12.30;91.61
64933;BME280;51446;53.850;10.662;2023-05-10T05:29:50;100776.75;;;12.51;90.88
64933;BME280;51446;53.850;10.662;2023-05-10T05:32:16;100773.28;;;12.55;91.13
64933;BME280;51446;53.850;10.662;2023-05-10T05:34:41;100770.75;;;12.70;89.98
64933;BME280;51446;53.850;10.662;2023-05-10T05:37:06;100768.19;;;12.78;87.90
64933;BME280;51446;53.850;10.662;2023-05-10T05:39:31;100769.84;;;12.63;88.01
64933;BME280;51446;53.850;10.662;2023-05-10T05:41:57;100769.97;;;12.83;88.48
64933;BME280;51446;53.850;10.662;2023-05-10T05:44:23;100763.84;;;12.88;88.36
64933;BME280;51446;53.850;10.662;2023-05-10T05:46:48;100770.03;;;12.94;88.84
64933;BME280;51446;53.850;10.662;2023-05-10T05:49:13;100770.16;;;13.19;85.96
64933;BME280;51446;53.850;10.662;2023-05-10T05:51:39;100762.38;;;13.34;83.77
64933;BME280;51446;53.850;10.662;2023-05-10T05:54:04;100769.47;;;13.56;82.49
64933;BME280;51446;53.850;10.662;2023-05-10T05:56:30;100777.47;;;13.82;80.07
64933;BME280;51446;53.850;10.662;2023-05-10T05:58:55;100769.53;;;13.77;82.76
64933;BME280;51446;53.850;10.662;2023-05-10T06:01:20;100772.13;;;13.63;81.97
64933;BME280;51446;53.850;10.662;2023-05-10T06:03:46;100767.66;;;13.42;84.83
64933;BME280;51446;53.850;10.662;2023-05-10T06:06:11;100766.00;;;13.75;81.57
64933;BME280;51446;53.850;10.662;2023-05-10T06:08:37;100766.03;;;13.86;82.04
64933;BME280;51446;53.850;10.662;2023-05-10T06:11:02;100752.00;;;13.98;79.82
64933;BME280;51446;53.850;10.662;2023-05-10T06:13:29;100755.53;;;14.63;76.64
64933;BME280;51446;53.850;10.662;2023-05-10T06:15:57;100758.94;;;15.25;71.94
64933;BME280;51446;53.850;10.662;2023-05-10T06:18:23;100765.84;;;15.56;71.35
64933;BME280;51446;53.850;10.662;2023-05-10T06:20:49;100767.91;;;16.45;66.72
64933;BME280;51446;53.850;10.662;2023-05-10T06:23:14;100757.47;;;17.22;63.21
64933;BME280;51446;53.850;10.662;2023-05-10T06:25:40;100758.28;;;17.25;59.87
64933;BME280;51446;53.850;10.662;2023-05-10T06:28:05;100763.31;;;16.66;62.89
64933;BME280;51446;53.850;10.662;2023-05-10T06:30:30;100767.16;;;16.29;63.82
64933;BME280;51446;53.850;10.662;2023-05-10T06:32:56;100767.81;;;16.56;62.83
64933;BME280;51446;53.850;10.662;2023-05-10T06:35:21;100766.44;;;16.12;64.33
64933;BME280;51446;53.850;10.662;2023-05-10T06:37:46;100770.91;;;15.99;64.73
64933;BME280;51446;53.850;10.662;2023-05-10T06:40:12;100776.34;;;16.89;62.46
64933;BME280;51446;53.850;10.662;2023-05-10T06:42:37;100776.94;;;17.91;58.98
64933;BME280;51446;53.850;10.662;2023-05-10T06:45:03;100768.69;;;18.11;56.76
64933;BME280;51446;53.850;10.662;2023-05-10T06:47:28;100760.44;;;18.78;56.38
64933;BME280;51446;53.850;10.662;2023-05-10T06:49:53;100765.50;;;18.42;56.88
64933;BME280;51446;53.850;10.662;2023-05-10T06:52:19;100772.19;;;19.14;52.00
64933;BME280;51446;53.850;10.662;2023-05-10T06:54:44;100759.91;;;19.52;51.52
64933;BME280;51446;53.850;10.662;2023-05-10T06:57:09;100765.25;;;19.51;51.06
64933;BME280;51446;53.850;10.662;2023-05-10T06:59:34;100768.31;;;19.73;50.80
64933;BME280;51446;53.850;10.662;2023-05-10T07:02:01;100765.31;;;19.90;50.22
64933;BME280;51446;53.850;10.662;2023-05-10T07:04:26;100775.97;;;19.02;49.84
64933;BME280;51446;53.850;10.662;2023-05-10T07:06:51;100766.28;;;18.98;51.80
64933;BME280;51446;53.850;10.662;2023-05-10T07:09:17;100766.31;;;18.97;52.07
64933;BME280;51446;53.850;10.662;2023-05-10T07:11:42;100765.56;;;18.38;54.27
64933;BME280;51446;53.850;10.662;2023-05-10T07:14:07;100758.25;;;19.03;52.87
64933;BME280;51446;53.850;10.662;2023-05-10T07:16:32;100762.88;;;18.93;53.81
64933;BME280;51446;53.850;10.662;2023-05-10T07:18:58;100764.97;;;18.21;53.22
64933;BME280;51446;53.850;10.662;2023-05-10T07:21:23;100758.34;;;17.88;53.95
64933;BME280;51446;53.850;10.662;2023-05-10T07:23:53;100755.72;;;18.45;53.01
64933;BME280;51446;53.850;10.662;2023-05-10T07:26:18;100762.25;;;18.77;53.32
64933;BME280;51446;53.850;10.662;2023-05-10T07:28:44;100765.53;;;18.40;52.12
64933;BME280;51446;53.850;10.662;2023-05-10T07:31:09;100765.00;;;18.16;53.94
64933;BME280;51446;53.850;10.662;2023-05-10T07:33:34;100756.53;;;18.49;55.06
64933;BME280;51446;53.850;10.662;2023-05-10T07:36:00;100760.09;;;19.41;51.36
64933;BME280;51446;53.850;10.662;2023-05-10T07:38:25;100761.34;;;19.67;49.91
64933;BME280;51446;53.850;10.662;2023-05-10T07:40:51;100758.31;;;19.44;50.38
64933;BME280;51446;53.850;10.662;2023-05-10T07:43:16;100769.41;;;20.41;47.86
64933;BME280;51446;53.850;10.662;2023-05-10T07:45:41;100756.22;;;21.04;47.30
64933;BME280;51446;53.850;10.662;2023-05-10T07:48:06;100763.41;;;21.93;45.25
64933;BME280;51446;53.850;10.662;2023-05-10T07:50:32;100764.50;;;21.26;45.64
64933;BME280;51446;53.850;10.662;2023-05-10T07:52:57;100762.59;;;20.63;46.18
64933;BME280;51446;53.850;10.662;2023-05-10T07:55:22;100759.25;;;21.23;46.20
64933;BME280;51446;53.850;10.662;2023-05-10T07:57:48;100759.63;;;21.10;45.79
64933;BME280;51446;53.850;10.662;2023-05-10T08:00:17;100772.31;;;20.68;46.39
64933;BME280;51446;53.850;10.662;2023-05-10T08:02:42;100776.03;;;20.60;46.93
64933;BME280;51446;53.850;10.662;2023-05-10T08:05:08;100776.88;;;20.61;47.39
64933;BME280;51446;53.850;10.662;2023-05-10T08:07:33;100771.56;;;20.61;48.13
64933;BME280;51446;53.850;10.662;2023-05-10T08:09:58;100780.44;;;20.25;49.29
64933;BME280;51446;53.850;10.662;2023-05-10T08:12:24;100769.72;;;20.28;47.15
64933;BME280;51446;53.850;10.662;2023-05-10T08:14:49;100776.06;;;19.85;49.05
64933;BME280;51446;53.850;10.662;2023-05-10T08:17:14;100774.59;;;19.27;49.75
64933;BME280;51446;53.850;10.662;2023-05-10T08:19:39;100772.78;;;20.12;50.33
64933;BME280;51446;53.850;10.662;2023-05-10T08:22:05;100773.41;;;20.59;47.52
64933;BME280;51446;53.850;10.662;2023-05-10T08:24:30;100781.03;;;20.37;47.25
64933;BME280;51446;53.850;10.662;2023-05-10T08:26:55;100769.16;;;20.86;46.70
64933;BME280;51446;53.850;10.662;2023-05-10T08:29:21;100775.06;;;20.63;46.44
64933;BME280;51446;53.850;10.662;2023-05-10T08:31:46;100776.22;;;20.89;46.56
64933;BME280;51446;53.850;10.662;2023-05-10T08:34:11;100772.38;;;21.30;45.72
64933;BME280;51446;53.850;10.662;2023-05-10T08:36:36;100779.09;;;21.44;45.31
64933;BME280;51446;53.850;10.662;2023-05-10T08:39:02;100788.13;;;21.07;44.58
64933;BME280;51446;53.850;10.662;2023-05-10T08:41:28;100779.56;;;20.95;45.71
64933;BME280;51446;53.850;10.662;2023-05-10T08:43:55;100777.25;;;21.14;45.98
64933;BME280;51446;53.850;10.662;2023-05-10T08:46:22;100773.78;;;22.02;45.29
64933;BME280;51446;53.850;10.662;2023-05-10T08:48:49;100774.16;;;21.91;44.99
64933;BME280;51446;53.850;10.662;2023-05-10T08:51:17;100769.50;;;22.25;44.35
64933;BME280;51446;53.850;10.662;2023-05-10T08:53:43;100770.19;;;22.85;42.15
64933;BME280;51446;53.850;10.662;2023-05-10T08:56:09;100773.50;;;22.66;42.93
64933;BME280;51446;53.850;10.662;2023-05-10T08:58:34;100776.38;;;22.33;44.48
64933;BME280;51446;53.850;10.662;2023-05-10T09:01:00;100785.41;;;23.08;44.03
64933;BME280;51446;53.850;10.662;2023-05-10T09:03:25;100786.50;;;21.94;43.44
64933;BME280;51446;53.850;10.662;2023-05-10T09:05:51;100789.31;;;21.89;44.79
64933;BME280;51446;53.850;10.662;2023-05-10T09:08:17;100785.22;;;22.07;45.13
64933;BME280;51446;53.850;10.662;2023-05-10T09:10:43;100789.28;;;22.19;43.51
64933;BME280;51446;53.850;10.662;2023-05-10T09:13:10;100801.09;;;22.67;44.47
64933;BME280;51446;53.850;10.662;2023-05-10T09:15:36;100795.69;;;22.13;42.94
64933;BME280;51446;53.850;10.662;2023-05-10T09:18:01;100811.91;;;20.83;47.37
64933;BME280;51446;53.850;10.662;2023-05-10T09:20:27;100796.41;;;21.29;45.65
64933;BME280;51446;53.850;10.662;2023-05-10T09:22:53;100805.09;;;21.04;48.09
64933;BME280;51446;53.850;10.662;2023-05-10T09:25:19;100805.53;;;20.53;46.96
64933;BME280;51446;53.850;10.662;2023-05-10T09:27:46;100811.00;;;20.83;46.87
64933;BME280;51446;53.850;10.662;2023-05-10T09:30:29;100812.03;;;20.77;48.78
64933;BME280;51446;53.850;10.662;2023-05-10T09:32:56;100804.50;;;20.93;49.65
64933;BME280;51446;53.850;10.662;2023-05-10T09:35:27;100807.22;;;21.24;48.16
64933;BME280;51446;53.850;10.662;2023-05-10T09:37:55;100802.44;;;21.36;48.59
64933;BME280;51446;53.850;10.662;2023-05-10T09:40:23;100809.97;;;20.88;49.53
64933;BME280;51446;53.850;10.662;2023-05-10T09:43:08;100810.88;;;20.51;48.94
64933;BME280;51446;53.850;10.662;2023-05-10T09:45:34;100816.22;;;19.71;49.78
64933;BME280;51446;53.850;10.662;2023-05-10T09:48:01;100809.06;;;19.75;50.82
64933;BME280;51446;53.850;10.662;2023-05-10T09:50:28;100808.13;;;20.18;51.56
64933;BME280;51446;53.850;10.662;2023-05-10T09:52:58;100821.22;;;20.63;48.72
64933;BME280;51446;53.850;10.662;2023-05-10T09:57:59;100803.09;;;21.12;47.50
64933;BME280;51446;53.850;10.662;2023-05-10T10:00:25;100805.38;;;21.26;47.32
64933;BME280;51446;53.850;10.662;2023-05-10T10:02:59;100814.75;;;21.41;47.69
64933;BME280;51446;53.850;10.662;2023-05-10T10:05:38;100816.44;;;21.12;47.74
64933;BME280;51446;53.850;10.662;2023-05-10T10:08:05;100828.06;;;20.75;50.78
64933;BME280;51446;53.850;10.662;2023-05-10T10:10:32;100814.50;;;21.80;49.32
64933;BME280;51446;53.850;10.662;2023-05-10T10:12:57;100804.28;;;21.95;46.93
64933;BME280;51446;53.850;10.662;2023-05-10T10:15:24;100814.13;;;22.21;49.26
64933;BME280;51446;53.850;10.662;2023-05-10T10:17:51;100816.16;;;21.55;47.50
64933;BME280;51446;53.850;10.662;2023-05-10T10:20:19;100820.75;;;20.84;49.26
64933;BME280;51446;53.850;10.662;2023-05-10T10:22:45;100820.41;;;20.61;49.01
64933;BME280;51446;53.850;10.662;2023-05-10T10:25:12;100818.44;;;20.32;53.74
64933;BME280;51446;53.850;10.662;2023-05-10T10:35:31;100815.84;;;19.91;53.55
64933;BME280;51446;53.850;10.662;2023-05-10T10:37:57;100825.59;;;19.47;55.03
64933;BME280;51446;53.850;10.662;2023-05-10T10:40:33;100826.16;;;19.63;55.99
64933;BME280;51446;53.850;10.662;2023-05-10T10:43:25;100834.28;;;19.57;55.47
64933;BME280;51446;53.850;10.662;2023-05-10T10:46:16;100829.00;;;19.98;55.14
64933;BME280;51446;53.850;10.662;2023-05-10T10:48:50;100828.56;;;19.75;54.47
64933;BME280;51446;53.850;10.662;2023-05-10T10:51:17;100832.63;;;19.93;55.44
64933;BME280;51446;53.850;10.662;2023-05-10T10:53:43;100835.94;;;20.05;55.18
64933;BME280;51446;53.850;10.662;2023-05-10T10:56:10;100837.47;;;20.15;55.42
64933;BME280;51446;53.850;10.662;2023-05-10T10:58:37;100839.22;;;20.16;55.07
64933;BME280;51446;53.850;10.662;2023-05-10T11:01:17;100836.91;;;20.02;57.09
64933;BME280;51446;53.850;10.662;2023-05-10T11:04:17;100838.25;;;20.20;56.61
64933;BME280;51446;53.850;10.662;2023-05-10T11:06:43;100834.22;;;20.04;59.22
64933;BME280;51446;53.850;10.662;2023-05-10T11:09:10;100829.41;;;20.20;58.11
64933;BME280;51446;53.850;10.662;2023-05-10T11:11:48;100830.44;;;19.70;58.73
64933;BME280;51446;53.850;10.662;2023-05-10T11:14:14;100836.19;;;19.94;60.02
64933;BME280;51446;53.850;10.662;2023-05-10T11:16:43;100834.84;;;19.71;58.86
64933;BME280;51446;53.850;10.662;2023-05-10T11:19:10;100835.91;;;19.64;62.04
64933;BME280;51446;53.850;10.662;2023-05-10T11:21:50;100841.00;;;19.30;60.51
64933;BME280;51446;53.850;10.662;2023-05-10T11:24:18;100842.50;;;19.46;64.32
64933;BME280;51446;53.850;10.662;2023-05-10T11:26:43;100840.38;;;19.62;60.40
64933;BME280;51446;53.850;10.662;2023-05-10T11:29:09;100847.81;;;19.46;59.50
64933;BME280;51446;53.850;10.662;2023-05-10T11:31:34;100847.47;;;19.62;61.56
64933;BME280;51446;53.850;10.662;2023-05-10T11:34:00;100847.56;;;20.01;59.73
64933;BME280;51446;53.850;10.662;2023-05-10T11:36:33;100841.72;;;19.83;59.11
64933;BME280;51446;53.850;10.662;2023-05-10T11:38:58;100845.09;;;19.91;59.52
64933;BME280;51446;53.850;10.662;2023-05-10T11:41:25;100846.06;;;20.28;57.24
64933;BME280;51446;53.850;10.662;2023-05-10T11:43:55;100851.81;;;20.49;57.90
64933;BME280;51446;53.850;10.662;2023-05-10T11:46:25;100842.50;;;20.65;58.63
64933;BME280;51446;53.850;10.662;2023-05-10T11:48:53;100859.19;;;20.75;57.56
64933;BME280;51446;53.850;10.662;2023-05-10T11:51:22;100854.97;;;20.65;58.97
64933;BME280;51446;53.850;10.662;2023-05-10T11:53:49;100866.75;;;19.73;58.63
64933;BME280;51446;53.850;10.662;2023-05-10T11:56:15;100861.09;;;19.46;61.60
64933;BME280;51446;53.850;10.662;2023-05-10T11:58:40;100860.81;;;19.15;62.85
64933;BME280;51446;53.850;10.662;2023-05-10T12:01:07;100864.03;;;19.31;65.51
64933;BME280;51446;53.850;10.662;2023-05-10T12:03:33;100866.78;;;19.28;67.68
64933;BME280;51446;53.850;10.662;2023-05-10T12:06:00;100868.47;;;19.30;68.92
64933;BME280;51446;53.850;10.662;2023-05-10T12:08:27;100875.81;;;19.17;68.38
64933;BME280;51446;53.850;10.662;2023-05-10T12:11:09;100873.88;;;19.26;72.22
64933;BME280;51446;53.850;10.662;2023-05-10T12:13:38;100882.31;;;19.01;70.53
64933;BME280;51446;53.850;10.662;2023-05-10T12:16:20;100882.31;;;19.01;69.87
64933;BME280;51446;53.850;10.662;2023-05-10T12:18:48;100884.06;;;19.02;72.93
64933;BME280;51446;53.850;10.662;2023-05-10T12:21:14;100889.31;;;19.05;69.78
64933;BME280;51446;53.850;10.662;2023-05-10T12:23:40;100870.31;;;18.73;67.70
64933;BME280;51446;53.850;10.662;2023-05-10T12:26:06;100895.50;;;19.05;70.04
64933;BME280;51446;53.850;10.662;2023-05-10T12:28:32;100899.81;;;19.13;70.11
64933;BME280;51446;53.850;10.662;2023-05-10T12:30:58;100905.13;;;19.13;76.64
64933;BME280;51446;53.850;10.662;2023-05-10T12:33:24;100910.88;;;18.88;82.78
64933;BME280;51446;53.850;10.662;2023-05-10T12:35:52;100915.31;;;18.86;86.10
64933;BME280;51446;53.850;10.662;2023-05-10T12:38:34;100926.56;;;19.03;86.97
64933;BME280;51446;53.850;10.662;2023-05-10T12:41:02;100924.13;;;18.29;92.45
64933;BME280;51446;53.850;10.662;2023-05-10T12:43:31;100926.53;;;18.46;91.85
64933;BME280;51446;53.850;10.662;2023-05-10T12:45:57;100936.84;;;18.02;95.30
64933;BME280;51446;53.850;10.662;2023-05-10T12:48:22;100942.31;;;17.88;97.99
64933;BME280;51446;53.850;10.662;2023-05-10T12:50:48;100942.38;;;17.80;100.00
64933;BME280;51446;53.850;10.662;2023-05-10T12:53:14;100948.56;;;17.82;100.00
64933;BME280;51446;53.850;10.662;2023-05-10T12:55:43;100952.94;;;17.85;100.00
64933;BME280;51446;53.850;10.662;2023-05-10T12:58:09;100956.78;;;17.56;100.00